createdAt,value
2017-10-21T00:00:46.656Z,16.61
2017-10-21T00:03:14.216Z,16.53
2017-10-21T00:05:42.055Z,16.51
2017-10-21T00:08:09.582Z,16.47
2017-10-21T00:10:37.116Z,16.42
2017-10-21T00:13:04.683Z,16.40
2017-10-21T00:15:32.272Z,16.40
2017-10-21T00:18:01.002Z,16.37
2017-10-21T00:20:28.562Z,16.44
2017-10-21T00:22:56.160Z,16.48
2017-10-21T00:25:23.708Z,16.38
2017-10-21T00:27:51.275Z,16.50
2017-10-21T00:30:18.800Z,16.52
2017-10-21T00:32:46.358Z,16.49
2017-10-21T00:35:13.985Z,16.48
2017-10-21T00:37:41.680Z,16.50
2017-10-21T00:40:09.242Z,16.55
2017-10-21T00:42:37.107Z,16.55
2017-10-21T00:45:04.666Z,16.45
2017-10-21T00:47:32.182Z,16.45
2017-10-21T00:49:59.849Z,16.43
2017-10-21T00:52:27.367Z,16.41
2017-10-21T00:54:54.904Z,16.44
2017-10-21T00:57:22.666Z,16.44
2017-10-21T00:59:50.224Z,16.43
2017-10-21T01:02:17.785Z,16.44
2017-10-21T01:04:45.349Z,16.40
2017-10-21T01:07:12.905Z,16.36
2017-10-21T01:09:40.462Z,16.35
2017-10-21T01:12:08.019Z,16.39
2017-10-21T01:14:35.539Z,16.35
2017-10-21T01:17:03.062Z,16.26
2017-10-21T01:19:30.632Z,16.31
2017-10-21T01:21:58.154Z,16.33
2017-10-21T01:24:25.713Z,16.19
2017-10-21T01:26:53.375Z,16.05
2017-10-21T01:29:20.934Z,16.11
2017-10-21T01:31:48.501Z,16.14
2017-10-21T01:34:16.244Z,16.12
2017-10-21T01:36:43.762Z,16.08
2017-10-21T01:39:11.287Z,16.08
2017-10-21T01:41:38.942Z,15.94
2017-10-21T01:44:06.493Z,15.82
2017-10-21T01:46:34.053Z,15.72
2017-10-21T01:49:01.818Z,15.76
2017-10-21T01:51:29.376Z,15.76
2017-10-21T01:53:56.936Z,15.66
2017-10-21T01:56:24.595Z,15.60
2017-10-21T01:58:52.155Z,15.54
2017-10-21T02:01:19.715Z,15.50
2017-10-21T02:03:47.275Z,15.48
2017-10-21T02:06:14.795Z,15.45
2017-10-21T02:08:42.315Z,15.48
2017-10-21T02:11:10.157Z,15.53
2017-10-21T02:13:37.689Z,15.66
2017-10-21T02:16:05.492Z,15.54
2017-10-21T02:18:33.243Z,15.50
2017-10-21T02:21:00.801Z,15.29
2017-10-21T02:23:28.361Z,15.30
2017-10-21T02:25:55.920Z,15.15
2017-10-21T02:28:23.460Z,15.47
2017-10-21T02:30:50.980Z,15.55
2017-10-21T02:33:18.551Z,15.17
2017-10-21T02:35:46.080Z,15.48
2017-10-21T02:38:13.613Z,15.32
2017-10-21T02:40:41.604Z,15.23
2017-10-21T02:43:09.134Z,15.28
2017-10-21T02:45:36.700Z,15.16
2017-10-21T02:48:04.464Z,14.76
2017-10-21T02:50:32.125Z,14.76
2017-10-21T02:52:59.685Z,15.07
2017-10-21T02:55:27.426Z,15.04
2017-10-21T02:57:54.948Z,14.94
2017-10-21T03:00:22.480Z,15.05
2017-10-21T03:02:51.048Z,14.87
2017-10-21T03:05:18.708Z,14.99
2017-10-21T03:07:46.267Z,14.84
2017-10-21T03:10:14.031Z,14.93
2017-10-21T03:12:41.563Z,14.87
2017-10-21T03:15:09.096Z,14.88
2017-10-21T03:17:36.895Z,14.94
2017-10-21T03:20:04.424Z,15.07
2017-10-21T03:22:31.943Z,15.18
2017-10-21T03:24:59.774Z,15.22
2017-10-21T03:27:27.299Z,15.16
2017-10-21T03:29:54.830Z,15.31
2017-10-21T03:32:22.575Z,15.36
2017-10-21T03:34:50.099Z,15.31
2017-10-21T03:37:17.624Z,15.36
2017-10-21T03:39:45.340Z,15.41
2017-10-21T03:42:12.863Z,15.40
2017-10-21T03:44:40.391Z,15.46
2017-10-21T03:47:07.951Z,15.27
2017-10-21T03:49:35.489Z,15.26
2017-10-21T03:52:03.034Z,15.46
2017-10-21T03:54:30.624Z,15.47
2017-10-21T03:56:58.166Z,15.38
2017-10-21T03:59:25.687Z,15.60
2017-10-21T04:01:53.590Z,15.57
2017-10-21T04:04:21.166Z,15.37
2017-10-21T04:06:48.708Z,15.65
2017-10-21T04:09:16.267Z,15.56
2017-10-21T04:11:43.827Z,15.71
2017-10-21T04:14:11.343Z,15.63
2017-10-21T04:16:38.989Z,15.76
2017-10-21T04:19:06.510Z,15.65
2017-10-21T04:21:34.063Z,15.60
2017-10-21T04:24:01.622Z,15.79
2017-10-21T04:26:29.181Z,15.80
2017-10-21T04:28:56.740Z,15.67
2017-10-21T04:31:24.488Z,15.80
2017-10-21T04:33:52.972Z,15.73
2017-10-21T04:36:20.522Z,15.56
2017-10-21T04:41:15.150Z,15.57
2017-10-21T04:43:42.711Z,15.56
2017-10-21T04:46:10.460Z,15.40
2017-10-21T04:48:37.987Z,15.37
2017-10-21T04:51:05.516Z,15.40
2017-10-21T04:53:33.084Z,15.29
2017-10-21T04:56:00.617Z,15.49
2017-10-21T04:58:28.166Z,15.48
2017-10-21T05:00:56.236Z,15.44
2017-10-21T05:03:23.754Z,15.30
2017-10-21T05:05:51.271Z,15.30
2017-10-21T05:08:19.000Z,15.32
2017-10-21T05:10:46.519Z,15.20
2017-10-21T05:13:14.039Z,15.27
2017-10-21T05:15:41.582Z,15.11
2017-10-21T05:18:09.104Z,15.11
2017-10-21T05:20:37.631Z,15.20
2017-10-21T05:23:05.294Z,15.17
2017-10-21T05:25:32.852Z,15.27
2017-10-21T05:28:00.423Z,15.38
2017-10-21T05:30:28.176Z,15.57
2017-10-21T05:32:55.733Z,15.52
2017-10-21T05:35:23.294Z,15.70
2017-10-21T05:37:50.868Z,15.80
2017-10-21T05:40:18.411Z,15.75
2017-10-21T05:42:45.945Z,15.69
2017-10-21T05:45:13.529Z,15.58
2017-10-21T05:47:41.090Z,15.34
2017-10-21T05:50:08.648Z,15.05
2017-10-21T05:52:36.207Z,14.96
2017-10-21T05:55:03.767Z,15.34
2017-10-21T05:57:31.326Z,15.19
2017-10-21T05:59:58.885Z,15.22
2017-10-21T06:02:26.447Z,15.21
2017-10-21T06:04:54.010Z,15.20
2017-10-21T06:07:21.747Z,15.33
2017-10-21T06:09:49.259Z,15.33
2017-10-21T06:12:16.787Z,15.21
2017-10-21T06:14:44.545Z,15.29
2017-10-21T06:17:12.105Z,15.31
2017-10-21T06:19:39.675Z,15.35
2017-10-21T06:22:07.370Z,15.43
2017-10-21T06:24:34.899Z,15.45
2017-10-21T06:27:02.444Z,15.50
2017-10-21T06:29:30.819Z,15.60
2017-10-21T06:31:58.382Z,15.68
2017-10-21T06:34:25.941Z,15.78
2017-10-21T06:36:53.687Z,15.82
2017-10-21T06:39:21.206Z,15.69
2017-10-21T06:41:48.723Z,15.75
2017-10-21T06:44:16.290Z,16.03
2017-10-21T06:46:43.838Z,16.01
2017-10-21T06:49:11.398Z,16.14
2017-10-21T06:51:39.242Z,16.02
2017-10-21T06:54:06.924Z,16.05
2017-10-21T06:56:34.591Z,16.14
2017-10-21T06:59:03.272Z,16.45
2017-10-21T07:01:30.795Z,16.67
2017-10-21T07:03:58.348Z,16.65
2017-10-21T07:06:26.038Z,16.58
2017-10-21T07:08:53.611Z,16.75
2017-10-21T07:11:21.682Z,16.59
2017-10-21T07:13:50.674Z,17.01
2017-10-21T07:16:18.234Z,17.26
2017-10-21T07:18:45.792Z,17.29
2017-10-21T07:21:13.767Z,17.38
2017-10-21T07:23:41.305Z,17.24
2017-10-21T07:26:09.100Z,17.22
2017-10-21T07:28:36.665Z,17.29
2017-10-21T07:31:04.203Z,17.37
2017-10-21T07:33:32.683Z,17.40
2017-10-21T07:36:00.271Z,17.42
2017-10-21T07:38:27.800Z,17.41
2017-10-21T07:40:55.360Z,17.53
2017-10-21T07:43:23.123Z,17.53
2017-10-21T07:45:50.684Z,17.56
2017-10-21T07:48:18.246Z,17.46
2017-10-21T07:50:45.811Z,17.80
2017-10-21T07:53:13.362Z,17.92
2017-10-21T07:55:41.842Z,18.11
2017-10-21T07:58:10.005Z,18.19
2017-10-21T08:00:37.574Z,18.06
2017-10-21T08:03:05.133Z,18.54
2017-10-21T08:05:33.103Z,19.08
2017-10-21T08:08:00.707Z,19.39
2017-10-21T08:10:28.228Z,19.94
2017-10-21T08:12:55.998Z,20.30
2017-10-21T08:15:23.542Z,20.35
2017-10-21T08:17:51.206Z,20.45
2017-10-21T08:20:18.776Z,20.19
2017-10-21T08:22:46.335Z,19.81
2017-10-21T08:25:13.856Z,19.99
2017-10-21T08:27:41.645Z,20.11
2017-10-21T08:30:09.203Z,20.18
2017-10-21T08:32:36.773Z,20.83
2017-10-21T08:35:04.777Z,21.04
2017-10-21T08:37:32.323Z,21.17
2017-10-21T08:39:59.840Z,20.72
2017-10-21T08:42:27.824Z,20.86
2017-10-21T08:44:55.377Z,20.68
2017-10-21T08:47:22.954Z,20.71
2017-10-21T08:49:50.599Z,21.23
2017-10-21T08:52:18.383Z,21.53
2017-10-21T08:54:45.972Z,21.77
2017-10-21T08:57:14.813Z,21.71
2017-10-21T08:59:42.386Z,21.87
2017-10-21T09:02:09.907Z,21.80
2017-10-21T09:04:38.104Z,21.59
2017-10-21T09:07:05.663Z,21.67
2017-10-21T09:09:33.624Z,21.24
2017-10-21T09:12:02.420Z,21.57
2017-10-21T09:14:30.900Z,21.54
2017-10-21T09:16:58.460Z,21.58
2017-10-21T09:19:26.315Z,21.29
2017-10-21T09:21:53.847Z,20.90
2017-10-21T09:24:22.366Z,21.07
2017-10-21T09:26:50.642Z,21.27
2017-10-21T09:29:18.202Z,21.14
2017-10-21T09:31:45.759Z,21.37
2017-10-21T09:34:13.579Z,21.87
2017-10-21T09:36:41.105Z,22.77
2017-10-21T09:39:09.052Z,23.62
2017-10-21T09:41:37.019Z,26.32
2017-10-21T09:44:04.987Z,27.22
2017-10-21T09:46:32.958Z,26.70
2017-10-21T09:49:00.533Z,26.30
2017-10-21T09:51:28.077Z,27.21
2017-10-21T09:53:56.556Z,28.86
2017-10-21T09:56:24.130Z,28.66
2017-10-21T09:58:52.597Z,28.41
2017-10-21T10:01:20.565Z,28.51
2017-10-21T10:03:48.524Z,27.09
2017-10-21T10:06:16.298Z,25.75
2017-10-21T10:08:44.780Z,25.21
2017-10-21T10:11:12.746Z,25.00
2017-10-21T10:13:40.312Z,24.61
2017-10-21T10:16:07.963Z,23.94
2017-10-21T10:18:35.924Z,23.97
2017-10-21T10:21:03.488Z,24.21
2017-10-21T10:23:31.158Z,24.26
2017-10-21T10:25:58.883Z,24.67
2017-10-21T10:28:26.408Z,24.47
2017-10-21T10:30:54.040Z,24.09
2017-10-21T10:33:22.006Z,23.75
2017-10-21T10:35:49.669Z,23.33
2017-10-21T10:38:17.229Z,23.73
2017-10-21T10:40:44.886Z,24.01
2017-10-21T10:43:12.450Z,24.14
2017-10-21T10:45:40.929Z,24.53
2017-10-21T10:48:08.694Z,24.93
2017-10-21T10:50:36.304Z,25.22
2017-10-21T10:53:04.068Z,24.85
2017-10-21T10:55:32.088Z,24.61
2017-10-21T10:57:59.855Z,24.91
2017-10-21T11:00:27.615Z,25.40
2017-10-21T11:02:55.654Z,25.07
2017-10-21T11:05:23.184Z,24.70
2017-10-21T11:07:50.703Z,24.51
2017-10-21T11:10:18.678Z,24.89
2017-10-21T11:12:46.229Z,24.08
2017-10-21T11:15:13.796Z,23.83
2017-10-21T11:17:41.400Z,24.56
2017-10-21T11:20:09.010Z,24.66
2017-10-21T11:22:36.545Z,25.45
2017-10-21T11:25:04.244Z,25.07
2017-10-21T11:27:32.712Z,24.56
2017-10-21T11:30:00.271Z,24.31
2017-10-21T11:32:27.968Z,24.55
2017-10-21T11:34:55.526Z,24.22
2017-10-21T11:37:23.153Z,24.85
2017-10-21T11:39:50.822Z,25.46
2017-10-21T11:42:18.373Z,25.19
2017-10-21T11:44:45.932Z,24.96
2017-10-21T11:47:13.696Z,24.62
2017-10-21T11:49:41.255Z,24.49
2017-10-21T11:52:21.499Z,23.88
2017-10-21T11:54:49.085Z,23.72
2017-10-21T11:57:16.628Z,23.26
2017-10-21T11:59:44.316Z,23.28
2017-10-21T12:02:11.960Z,22.95
2017-10-21T12:04:39.512Z,22.86
2017-10-21T12:07:07.086Z,22.55
2017-10-21T12:09:34.735Z,22.42
2017-10-21T12:12:02.292Z,22.51
2017-10-21T12:14:30.274Z,22.21
2017-10-21T12:16:58.102Z,22.47
2017-10-21T12:19:25.892Z,22.27
2017-10-21T12:21:53.711Z,22.27
2017-10-21T12:24:21.263Z,22.53
2017-10-21T12:26:48.939Z,22.20
2017-10-21T12:29:16.855Z,22.52
2017-10-21T12:31:44.403Z,22.67
2017-10-21T12:34:11.916Z,22.31
2017-10-21T12:36:40.341Z,22.48
2017-10-21T12:39:07.901Z,22.53
2017-10-21T12:41:35.462Z,22.56
2017-10-21T12:44:03.326Z,22.76
2017-10-21T12:46:31.012Z,22.70
2017-10-21T12:48:58.752Z,22.68
2017-10-21T12:51:26.619Z,22.74
2017-10-21T12:53:54.280Z,22.83
2017-10-21T12:56:21.898Z,22.80
2017-10-21T12:58:49.668Z,22.72
2017-10-21T13:01:17.268Z,22.58
2017-10-21T13:03:44.851Z,22.60
2017-10-21T13:06:12.792Z,22.56
2017-10-21T13:08:41.225Z,22.48
2017-10-21T13:11:08.831Z,22.36
2017-10-21T13:13:36.417Z,22.45
2017-10-21T13:16:04.155Z,22.40
2017-10-21T13:18:31.701Z,22.43
2017-10-21T13:20:59.665Z,22.45
2017-10-21T13:23:27.244Z,22.48
2017-10-21T13:25:54.800Z,22.39
2017-10-21T13:28:22.769Z,22.48
2017-10-21T13:30:50.444Z,22.59
2017-10-21T13:33:18.194Z,22.58
2017-10-21T13:35:45.790Z,22.50
2017-10-21T13:38:13.524Z,22.62
2017-10-21T13:40:41.127Z,22.73
2017-10-21T13:43:09.111Z,23.02
2017-10-21T13:45:36.812Z,23.10
2017-10-21T13:48:04.563Z,23.06
2017-10-21T13:50:32.439Z,23.16
2017-10-21T13:53:00.000Z,23.18
2017-10-21T13:55:27.723Z,23.13
2017-10-21T13:57:55.432Z,23.11
2017-10-21T14:00:22.979Z,23.25
2017-10-21T14:02:50.542Z,23.46
2017-10-21T14:05:18.287Z,23.62
2017-10-21T14:07:45.916Z,23.83
2017-10-21T14:10:13.477Z,23.93
2017-10-21T14:12:41.293Z,23.80
2017-10-21T14:15:08.851Z,23.51
2017-10-21T14:17:36.409Z,23.48
2017-10-21T14:20:03.969Z,23.16
2017-10-21T14:22:31.631Z,23.40
2017-10-21T14:24:59.190Z,23.50
2017-10-21T14:27:26.748Z,23.30
2017-10-21T14:29:54.287Z,23.55
2017-10-21T14:32:21.816Z,23.73
2017-10-21T14:34:49.373Z,23.41
2017-10-21T14:37:16.904Z,23.43
2017-10-21T14:39:44.495Z,23.48
2017-10-21T14:42:12.230Z,23.79
2017-10-21T14:44:39.821Z,23.60
2017-10-21T14:47:07.367Z,23.37
2017-10-21T14:49:34.928Z,22.88
2017-10-21T14:52:02.441Z,22.75
2017-10-21T14:54:29.991Z,22.53
2017-10-21T14:56:57.867Z,23.12
2017-10-21T14:59:25.426Z,22.81
2017-10-21T15:01:52.996Z,22.96
2017-10-21T15:04:20.956Z,22.67
2017-10-21T15:06:48.720Z,22.47
2017-10-21T15:09:16.311Z,22.18
2017-10-21T15:11:44.143Z,22.16
2017-10-21T15:14:11.726Z,22.16
2017-10-21T15:16:40.158Z,22.36
2017-10-21T15:19:08.151Z,22.42
2017-10-21T15:21:35.975Z,22.39
2017-10-21T15:24:03.681Z,22.10
2017-10-21T15:26:31.854Z,22.14
2017-10-21T15:28:59.396Z,21.92
2017-10-21T15:31:26.908Z,21.83
2017-10-21T15:33:54.841Z,22.06
2017-10-21T15:36:22.389Z,22.21
2017-10-21T15:38:49.904Z,21.97
2017-10-21T15:41:18.378Z,22.08
2017-10-21T15:43:46.056Z,22.21
2017-10-21T15:46:14.387Z,22.16
2017-10-21T15:48:43.880Z,22.36
2017-10-21T15:51:11.441Z,22.36
2017-10-21T15:53:39.517Z,22.33
2017-10-21T15:56:07.088Z,22.03
2017-10-21T15:58:34.628Z,21.58
2017-10-21T16:01:02.497Z,21.34
2017-10-21T16:03:30.468Z,21.13
2017-10-21T16:05:58.120Z,20.98
2017-10-21T16:08:25.718Z,20.48
2017-10-21T16:10:53.348Z,20.24
2017-10-21T16:13:21.009Z,19.58
2017-10-21T16:15:48.567Z,19.32
2017-10-21T16:18:16.535Z,18.97
2017-10-21T16:20:44.095Z,18.84
2017-10-21T16:23:11.864Z,18.45
2017-10-21T16:25:39.816Z,18.31
2017-10-21T16:28:07.376Z,18.05
2017-10-21T16:30:36.149Z,17.73
2017-10-21T16:33:04.440Z,17.65
2017-10-21T16:35:32.503Z,17.40
2017-10-21T16:38:00.080Z,17.29
2017-10-21T16:40:27.877Z,17.14
2017-10-21T16:42:55.414Z,17.10
2017-10-21T16:45:23.031Z,16.71
2017-10-21T16:47:50.597Z,16.66
2017-10-21T16:50:18.190Z,16.50
2017-10-21T16:52:45.845Z,16.50
2017-10-21T16:55:13.586Z,16.17
2017-10-21T16:57:41.118Z,15.96
2017-10-21T17:00:08.636Z,16.29
2017-10-21T17:02:36.522Z,16.41
2017-10-21T17:05:04.074Z,16.40
2017-10-21T17:07:31.714Z,16.21
2017-10-21T17:09:59.581Z,15.90
2017-10-21T17:12:27.342Z,15.75
2017-10-21T17:14:54.995Z,15.76
2017-10-21T17:17:23.177Z,15.66
2017-10-21T17:19:50.943Z,15.61
2017-10-21T17:22:18.605Z,15.60
2017-10-21T17:24:46.297Z,15.48
2017-10-21T17:27:13.802Z,15.06
2017-10-21T17:29:41.375Z,15.31
2017-10-21T17:32:09.260Z,15.04
2017-10-21T17:34:37.114Z,14.95
2017-10-21T17:37:04.897Z,15.00
2017-10-21T17:39:32.637Z,15.04
2017-10-21T17:42:00.222Z,14.90
2017-10-21T17:44:27.776Z,15.06
2017-10-21T17:46:55.343Z,15.16
2017-10-21T17:49:22.977Z,15.18
2017-10-21T17:51:50.542Z,15.12
2017-10-21T17:54:18.406Z,15.17
2017-10-21T17:56:46.171Z,15.25
2017-10-21T17:59:14.038Z,15.20
2017-10-21T18:01:41.802Z,15.41
2017-10-21T18:04:09.466Z,15.40
2017-10-21T18:06:37.328Z,15.30
2017-10-21T18:09:05.127Z,15.19
2017-10-21T18:11:32.699Z,15.43
2017-10-21T18:14:00.256Z,15.55
2017-10-21T18:16:28.170Z,15.69
2017-10-21T18:18:55.741Z,15.70
2017-10-21T18:21:23.298Z,15.60
2017-10-21T18:23:50.966Z,15.55
2017-10-21T18:26:18.724Z,15.46
2017-10-21T18:28:46.693Z,15.23
2017-10-21T18:31:14.560Z,15.43
2017-10-21T18:33:42.221Z,15.33
2017-10-21T18:36:09.854Z,15.06
2017-10-21T18:38:37.751Z,15.21
2017-10-21T18:41:05.323Z,14.98
2017-10-21T18:43:32.862Z,14.70
2017-10-21T18:46:00.631Z,14.71
2017-10-21T18:48:28.496Z,14.68
2017-10-21T18:50:56.276Z,14.40
2017-10-21T18:53:24.334Z,14.28
2017-10-21T18:55:52.099Z,14.32
2017-10-21T18:58:20.065Z,14.47
2017-10-21T19:00:48.139Z,14.51
2017-10-21T19:03:15.899Z,14.30
2017-10-21T19:05:43.665Z,14.37
2017-10-21T19:08:11.427Z,14.00
2017-10-21T19:10:39.203Z,14.02
2017-10-21T19:13:06.853Z,13.84
2017-10-21T19:15:35.761Z,14.00
2017-10-21T19:18:03.610Z,14.01
2017-10-21T19:20:31.684Z,14.25
2017-10-21T19:22:59.870Z,14.20
2017-10-21T19:25:27.635Z,14.34
2017-10-21T19:27:55.386Z,13.83
2017-10-21T19:30:23.053Z,13.96
2017-10-21T19:32:50.807Z,14.03
2017-10-21T19:35:18.469Z,14.46
2017-10-21T19:37:46.232Z,14.53
2017-10-21T19:40:13.801Z,14.65
2017-10-21T19:42:41.350Z,14.73
2017-10-21T19:45:08.928Z,14.74
2017-10-21T19:47:36.617Z,14.65
2017-10-21T19:50:04.234Z,14.59
2017-10-21T19:52:31.799Z,14.27
2017-10-21T19:54:59.651Z,14.42
2017-10-21T19:57:27.297Z,14.55
2017-10-21T19:59:55.185Z,14.46
2017-10-21T20:02:22.838Z,14.19
2017-10-21T20:04:50.444Z,14.05
2017-10-21T20:07:18.092Z,14.20
2017-10-21T20:09:45.663Z,14.19
2017-10-21T20:12:13.496Z,14.30
2017-10-21T20:14:41.365Z,14.32
2017-10-21T20:17:08.937Z,14.32
2017-10-21T20:19:36.493Z,14.15
2017-10-21T20:22:04.288Z,14.06
2017-10-21T20:24:31.903Z,14.00
2017-10-21T20:26:59.520Z,13.51
2017-10-21T20:29:27.130Z,13.53
2017-10-21T20:31:54.764Z,13.70
2017-10-21T20:34:22.447Z,14.09
2017-10-21T20:36:51.091Z,14.24
2017-10-21T20:39:18.612Z,14.33
2017-10-21T20:41:46.163Z,14.35
2017-10-21T20:44:13.772Z,14.42
2017-10-21T20:46:41.302Z,14.47
2017-10-21T20:49:08.836Z,14.06
2017-10-21T20:51:36.692Z,14.23
2017-10-21T20:54:04.371Z,14.37
2017-10-21T20:56:31.912Z,14.32
2017-10-21T20:58:59.676Z,14.35
2017-10-21T21:01:27.542Z,14.09
2017-10-21T21:03:55.115Z,14.14
2017-10-21T21:06:22.968Z,13.94
2017-10-21T21:08:50.528Z,14.01
2017-10-21T21:11:18.191Z,14.10
2017-10-21T21:13:45.851Z,14.10
2017-10-21T21:16:13.466Z,14.14
2017-10-21T21:18:41.011Z,14.13
2017-10-21T21:21:08.833Z,14.25
2017-10-21T21:23:36.393Z,13.88
2017-10-21T21:26:04.055Z,14.04
2017-10-21T21:28:31.635Z,14.28
2017-10-21T21:30:59.174Z,14.16
2017-10-21T21:33:26.699Z,13.93
2017-10-21T21:35:54.673Z,13.85
2017-10-21T21:38:23.000Z,13.66
2017-10-21T21:40:50.580Z,13.88
2017-10-21T21:43:19.447Z,14.04
2017-10-21T21:45:47.295Z,13.87
2017-10-21T21:48:15.098Z,13.92
2017-10-21T21:50:42.923Z,13.69
2017-10-21T21:53:10.603Z,13.79
2017-10-21T21:55:38.168Z,13.41
2017-10-21T21:58:06.214Z,13.67
2017-10-21T22:00:33.895Z,13.85
2017-10-21T22:03:01.670Z,13.73
2017-10-21T22:05:29.404Z,13.97
2017-10-21T22:07:56.963Z,14.13
2017-10-21T22:10:24.522Z,13.90
2017-10-21T22:12:52.083Z,14.02
2017-10-21T22:15:19.636Z,14.01
2017-10-21T22:17:47.200Z,13.89
2017-10-21T22:20:15.066Z,14.02
2017-10-21T22:22:42.635Z,13.90
2017-10-21T22:25:10.159Z,13.96
2017-10-21T22:27:38.031Z,13.65
2017-10-21T22:30:05.610Z,13.71
2017-10-21T22:32:33.166Z,13.63
2017-10-21T22:35:00.933Z,13.66
2017-10-21T22:37:28.604Z,13.61
2017-10-21T22:39:56.140Z,13.79
2017-10-21T22:42:23.817Z,13.51
2017-10-21T22:44:51.373Z,13.65
2017-10-21T22:47:18.961Z,13.55
2017-10-21T22:49:46.697Z,13.84
2017-10-21T22:52:14.211Z,13.77
2017-10-21T22:54:41.740Z,13.89
2017-10-21T22:57:10.143Z,13.69
2017-10-21T22:59:37.758Z,13.68
2017-10-21T23:02:05.279Z,13.36
2017-10-21T23:04:33.055Z,13.66
2017-10-21T23:07:01.351Z,13.60
2017-10-21T23:09:28.909Z,13.73
2017-10-21T23:11:56.655Z,13.59
2017-10-21T23:14:24.949Z,13.63
2017-10-21T23:16:52.515Z,13.55
2017-10-21T23:19:20.705Z,13.37
2017-10-21T23:21:48.466Z,13.45
2017-10-21T23:24:16.183Z,13.19
2017-10-21T23:26:44.332Z,13.28
2017-10-21T23:29:11.987Z,13.48
2017-10-21T23:31:40.872Z,13.35
2017-10-21T23:34:08.554Z,13.38
2017-10-21T23:36:36.278Z,13.50
2017-10-21T23:39:04.241Z,13.60
2017-10-21T23:41:32.166Z,13.58
2017-10-21T23:43:59.884Z,13.43
2017-10-21T23:46:27.419Z,13.39
2017-10-21T23:48:56.491Z,13.56
2017-10-21T23:51:24.188Z,13.48
2017-10-21T23:53:51.911Z,13.69
2017-10-21T23:56:20.228Z,13.53
2017-10-21T23:58:48.098Z,13.68
